• Join FlightAware (Why Join?)
  • Login
  • US Flag 
07:23AM EDT


 

Airport Tracker/Info


-or-


 

Live Flight TrackerFlight Track Log ✈ EJA831 ✈ 30-Sep-2013 ✈ KSNA - KOAK

Flight Track Log - Related Links

Times and Time Zones

All times are in EDT time to prevent confusion due to time zone crossing. See the EJA831 flight status page for this flight to view local times or setup timezone preferences in your user account.

Time Position Orientation Groundspeed Altitude Reporting Facility
EDT Latitude Longitude Course Direction KTS MPH feet Rate Location/Type
02:15PM 33.6000 -117.9000 320° Northwest 222 255 2,800  Level Southern California TRACON
02:16PM 33.5500 -117.9167 196° South 223 257 4,600 1,740 Climbing Southern California TRACON
02:17PM 33.5275 -117.9325 210° Southwest 222 255 5,600 1,800 Climbing Los Angeles Center
02:18PM 33.4744 -117.9683 209° Southwest 220 253 7,600 1,740 Climbing Los Angeles Center
02:19PM 33.4167 -118.0083 210° Southwest 231 266 9,200 1,500 Climbing Los Angeles Center
02:20PM 34.0353 -118.2315 320° Northwest  Level Estimated
02:20PM 33.3917 -118.1200 255° West 291 335 10,800  Level Los Angeles Center
02:21PM 33.3864 -118.2303 267° West 320 368 12,700 1,740 Climbing Los Angeles Center
02:22PM 33.3797 -118.3428 266° West 334 384 14,400 1,560 Climbing Los Angeles Center
02:23PM 33.4386 -118.4286 309° West 349 402 16,000 1,440 Climbing Los Angeles Center
02:24PM 33.5411 -118.4286 360° North 370 426 17,500 1,260 Climbing Los Angeles Center
02:25PM 33.6483 -118.4278 360° North 380 437 18,700 1,140 Climbing Los Angeles Center
02:26PM 33.7606 -118.4306 359° North 391 450 19,900 1,080 Climbing Los Angeles Center
02:27PM 33.8736 -118.4325 359° North 397 457 21,000 1,800 Climbing Los Angeles Center
02:28PM 33.9931 -118.4614 349° North 364 419 23,700 2,040 Climbing Los Angeles Center
02:29PM 34.0875 -118.5078 338° Northwest 362 417 25,300 1,500 Climbing Los Angeles Center
02:30PM 34.1833 -118.5553 338° Northwest 372 428 26,900 1,440 Climbing Los Angeles Center
02:31PM 34.2828 -118.6036 338° Northwest 383 441 28,300 1,320 Climbing Los Angeles Center
02:32PM 34.3825 -118.6531 338° Northwest 386 444 29,700 780 Climbing Los Angeles Center
02:33PM 34.4836 -118.7014 338° Northwest 388 447 30,000 120 Climbing Los Angeles Center
02:34PM 34.6158 -118.7647 338° Northwest 419 482 30,000  Level Los Angeles Center
02:35PM 34.7256 -118.8239 336° Northwest 431 496 30,000  Level Los Angeles Center
02:36PM 34.8308 -118.8897 333° Northwest 434 499 30,000  Level Los Angeles Center
02:37PM 34.9178 -118.9714 322° Northwest 424 488 30,000  Level Los Angeles Center
02:38PM 35.0292 -119.0781 322° Northwest 424 488 30,000  Level Los Angeles Center
02:39PM 35.1200 -119.1694 321° Northwest 425 489 30,000  Level Los Angeles Center
02:40PM 35.2131 -119.2606 321° Northwest 428 493 30,000  Level Los Angeles Center
02:41PM 35.3064 -119.3494 322° Northwest 427 491 30,000  Level Los Angeles Center
02:42PM 35.3994 -119.4425 321° Northwest 429 494 30,000  Level Los Angeles Center
02:43PM 35.5083 -119.5517 321° Northwest 422 486 30,000  Level Los Angeles Center
02:45PM 35.6006 -119.6447 321° Northwest 427 491 30,000  Level Los Angeles Center
02:46PM 35.6914 -119.7356 321° Northwest 424 488 30,000  Level Los Angeles Center
02:47PM 35.7831 -119.8267 321° Northwest 425 489 30,000  Level Los Angeles Center
02:48PM 35.8731 -119.9189 320° Northwest 423 487 30,000  Level Los Angeles Center
02:49PM 35.9819 -120.0292 321° Northwest 424 488 30,000  Level Los Angeles Center
02:50PM 36.0725 -120.1222 320° Northwest 425 489 30,000  Level Los Angeles Center
02:51PM 36.1633 -120.2139 321° Northwest 423 487 30,000  Level Los Angeles Center
02:52PM 36.2717 -120.3233 321° Northwest 426 490 30,000  Level Oakland Center
02:53PM 36.3817 -120.4339 321° Northwest 426 490 30,000 -180 Level Oakland Center
02:54PM 36.4719 -120.5289 320° Northwest 426 490 29,700 -960 Descending Oakland Center
02:55PM 36.5619 -120.6203 321° Northwest 423 487 28,100 -1,860 Descending Oakland Center
02:56PM 36.6489 -120.7139 319° Northwest 417 480 26,000 -2,100 Descending Oakland Center
02:57PM 36.7350 -120.8011 321° Northwest 408 470 23,900 -2,100 Descending Oakland Center
02:58PM 36.8197 -120.8994 317° Northwest 396 456 21,700 -1,920 Descending Oakland Center
02:59PM 36.8983 -120.9897 317° Northwest 384 442 20,000 -1,440 Descending Oakland Center
03:00PM 36.9747 -121.0772 318° Northwest 373 429 18,800 -1,560 Descending Oakland Center
03:01PM 37.0408 -121.1572 316° Northwest 339 390 16,900 -2,040 Descending Oakland Center
03:02PM 37.1228 -121.2444 320° Northwest 333 383 14,700 -1,860 Descending Oakland Center
03:03PM 37.1806 -121.3156 316° Northwest 332 382 13,200 -1,500 Descending Oakland Center
03:04PM 37.2433 -121.3875 318° Northwest 309 356 11,700 -1,860 Descending Oakland Center
03:05PM 37.3175 -121.4739 317° Northwest 301 346 9,500 -1,920 Descending Oakland Center
03:06PM 37.3697 -121.5347 317° Northwest 269 310 7,800 -1,440 Descending Oakland Center
03:07PM 37.4167 -121.5833 321° Northwest 268 308 7,000 -480 Descending Northern Cal TRACON
03:08PM 37.4667 -121.6500 313° West 268 308 7,000 -420 Level Northern Cal TRACON
03:09PM 37.5167 -121.7167 313° West 219 252 6,200 -660 Descending Northern Cal TRACON
03:10PM 37.5500 -121.7667 310° West 213 245 5,700 -600 Descending Northern Cal TRACON
03:11PM 37.5833 -121.8333 302° West 212 244 5,000 -840 Descending Northern Cal TRACON
03:12PM 37.6000 -121.9000 288° West 209 241 4,100 -900 Descending Northern Cal TRACON
03:13PM 37.6333 -121.9500 310° West 203 234 3,400 -480 Descending Northern Cal TRACON
03:14PM 37.6667 -122.0000 310° West 194 223 3,300 -600 Descending Northern Cal TRACON
03:15PM 37.6833 -122.0667 288° West 178 205 2,200 -960 Descending Northern Cal TRACON
03:16PM 37.7000 -122.1167 293° West 153 176 1,400 -780 Descending Northern Cal TRACON
03:17PM 37.7167 -122.1500 302° West 120 138 700 -660 Descending Northern Cal TRACON
03:18PM 37.7167 -122.2000 270° West 111 128 100 -600 Descending Northern Cal TRACON
03:21PM 37.7167 -122.2167 270° West  Level FlightAware Approximate